Time;durP1;ratioP1;P1;durP2;ratioP2;P2;SDS_P1;SDS_P2;PMS_P1;PMS_P2;Temp;Humidity;BMP_temperature;BMP_pressure;BME280_temperature;BME280_humidity;BME280_pressure;Samples;Min_cycle;Max_cycle;Signal;HPM_P1;HPM_P2
2022/03/23 00:00:06;;;;;;;31.40;18.58;;;;;;;;;;4995520;28;20073;-75
2022/03/23 00:02:32;;;;;;;37.85;20.38;;;;;;;;;;5012032;28;20497;-75
2022/03/23 00:04:58;;;;;;;36.47;19.20;;;;;;;;;;5011725;28;20052;-75
2022/03/23 00:07:24;;;;;;;39.53;21.20;;;;;;;;;;5012151;28;20502;-75
2022/03/23 00:09:50;;;;;;;38.50;20.10;;;;;;;;;;4996082;28;20129;-75
2022/03/23 00:12:16;;;;;;;37.40;21.25;;;;;;;;;;5029766;28;20037;-76
2022/03/23 00:14:42;;;;;;;36.72;19.83;;;;;;;;;;4996627;28;20041;-77
2022/03/23 00:17:09;;;;;;;34.83;18.73;;;;;;;;;;4995530;28;20049;-75
2022/03/23 00:19:35;;;;;;;38.97;20.67;;;;;;;;;;5012283;28;20045;-76
2022/03/23 00:22:01;;;;;;;35.97;19.75;;;;;;;;;;5011609;28;20037;-77
2022/03/23 00:24:27;;;;;;;37.00;20.77;;;;;;;;;;4996240;28;20034;-76
2022/03/23 00:26:53;;;;;;;35.05;20.40;;;;;;;;;;4995958;28;20041;-75
2022/03/23 00:29:19;;;;;;;42.13;21.08;;;;;;;;;;5029225;28;20431;-76
2022/03/23 00:31:45;;;;;;;36.25;20.10;;;;;;;;;;5011783;28;20098;-76
2022/03/23 00:34:11;;;;;;;34.13;19.02;;;;;;;;;;5011208;28;20038;-75
2022/03/23 00:36:38;;;;;;;34.88;19.75;;;;;;;;;;5011058;28;20128;-77
2022/03/23 00:39:04;;;;;;;42.28;20.70;;;;;;;;;;5011621;28;20048;-77
2022/03/23 00:41:30;;;;;;;34.30;19.48;;;;;;;;;;5011922;28;20498;-77
2022/03/23 00:43:56;;;;;;;38.17;21.27;;;;;;;;;;5010955;28;20040;-77
2022/03/23 00:46:24;;;;;;;38.00;20.85;;;;;;;;;;5010918;28;20498;-76
2022/03/23 00:48:50;;;;;;;39.10;20.52;;;;;;;;;;5011766;28;20045;-76
2022/03/23 00:51:16;;;;;;;37.13;20.70;;;;;;;;;;5029094;28;20029;-77
2022/03/23 00:53:42;;;;;;;38.78;20.42;;;;;;;;;;5012309;28;20045;-76
2022/03/23 00:56:10;;;;;;;37.58;20.55;;;;;;;;;;5011488;28;20049;-77
2022/03/23 00:58:36;;;;;;;40.53;20.15;;;;;;;;;;5011828;28;20037;-77
2022/03/23 01:01:02;;;;;;;35.38;20.55;;;;;;;;;;5011249;28;20037;-77
2022/03/23 01:03:28;;;;;;;40.42;20.60;;;;;;;;;;5011294;28;20128;-77
2022/03/23 01:05:54;;;;;;;33.85;19.25;;;;;;;;;;4995060;28;20050;-77
2022/03/23 01:08:20;;;;;;;35.42;20.05;;;;;;;;;;4995247;28;20077;-77
2022/03/23 01:10:46;;;;;;;37.58;20.05;;;;;;;;;;5029232;28;20030;-77
2022/03/23 01:13:12;;;;;;;34.95;20.15;;;;;;;;;;5011166;28;20041;-77
2022/03/23 01:15:38;;;;;;;41.50;20.48;;;;;;;;;;4995156;28;20044;-77
2022/03/23 01:18:05;;;;;;;35.33;20.45;;;;;;;;;;4995080;28;20084;-77
2022/03/23 01:20:31;;;;;;;41.08;22.00;;;;;;;;;;5029006;28;20043;-77
2022/03/23 01:22:57;;;;;;;36.08;19.33;;;;;;;;;;5011292;28;20041;-77
2022/03/23 01:25:23;;;;;;;37.88;19.38;;;;;;;;;;5010616;28;20045;-77
2022/03/23 01:27:49;;;;;;;34.72;19.10;;;;;;;;;;4995044;28;20486;-77
2022/03/23 01:30:16;;;;;;;40.45;21.02;;;;;;;;;;5028608;28;20045;-77
2022/03/23 01:32:43;;;;;;;40.55;21.35;;;;;;;;;;5011153;28;20061;-77
2022/03/23 01:35:10;;;;;;;40.05;19.83;;;;;;;;;;5010928;28;20545;-77
2022/03/23 01:37:37;;;;;;;39.33;20.98;;;;;;;;;;5028049;28;20045;-77
2022/03/23 01:40:08;;;;;;;35.60;20.42;;;;;;;;;;5010754;28;20045;-77
2022/03/23 01:42:34;;;;;;;40.00;21.17;;;;;;;;;;5011063;28;20049;-77
2022/03/23 01:45:00;;;;;;;38.75;20.52;;;;;;;;;;5011079;28;20044;-77
2022/03/23 01:47:26;;;;;;;42.30;20.60;;;;;;;;;;4994295;28;20045;-77
2022/03/23 01:49:54;;;;;;;41.03;20.75;;;;;;;;;;5010709;28;20202;-75
2022/03/23 01:52:22;;;;;;;39.10;21.20;;;;;;;;;;4994210;28;20041;-77
2022/03/23 01:54:48;;;;;;;42.30;22.80;;;;;;;;;;5010820;28;20040;-76
2022/03/23 01:57:15;;;;;;;48.00;23.35;;;;;;;;;;5009773;28;20038;-76
2022/03/23 01:59:42;;;;;;;49.85;24.65;;;;;;;;;;4994512;28;20045;-77
2022/03/23 02:02:08;;;;;;;48.17;24.05;;;;;;;;;;5010065;28;20060;-76
2022/03/23 02:04:35;;;;;;;47.60;23.80;;;;;;;;;;5010299;28;20049;-77
2022/03/23 02:07:01;;;;;;;51.30;25.20;;;;;;;;;;5028352;28;20041;-77
2022/03/23 02:09:27;;;;;;;38.63;20.70;;;;;;;;;;4994240;28;20410;-77
2022/03/23 02:11:54;;;;;;;46.30;22.52;;;;;;;;;;5028375;28;20041;-77
2022/03/23 02:14:20;;;;;;;44.00;22.83;;;;;;;;;;5028150;28;20398;-77
2022/03/23 02:16:47;;;;;;;41.25;21.63;;;;;;;;;;5027844;28;20041;-77
2022/03/23 02:19:14;;;;;;;41.67;21.05;;;;;;;;;;5028141;28;20390;-77
2022/03/23 02:21:45;;;;;;;46.65;24.48;;;;;;;;;;5028184;28;20490;-77
2022/03/23 02:24:13;;;;;;;42.17;21.77;;;;;;;;;;5007955;28;20053;-77
2022/03/23 02:26:40;;;;;;;42.35;21.92;;;;;;;;;;5010520;28;20045;-77
2022/03/23 02:29:07;;;;;;;33.72;19.13;;;;;;;;;;5009816;28;20045;-77
2022/03/23 02:31:33;;;;;;;41.55;20.25;;;;;;;;;;5027813;28;20081;-76
2022/03/23 02:33:59;;;;;;;40.33;21.50;;;;;;;;;;5010413;28;20038;-77
2022/03/23 02:36:25;;;;;;;35.05;18.63;;;;;;;;;;5009831;28;20049;-77
2022/03/23 02:38:52;;;;;;;40.63;21.65;;;;;;;;;;5010306;28;20033;-77
2022/03/23 02:41:18;;;;;;;37.65;21.00;;;;;;;;;;5027559;28;20158;-77
2022/03/23 02:43:44;;;;;;;43.67;22.98;;;;;;;;;;5026955;28;20068;-77
2022/03/23 02:46:14;;;;;;;40.10;21.75;;;;;;;;;;5007623;28;20272;-77
2022/03/23 02:48:41;;;;;;;38.80;21.45;;;;;;;;;;5027606;28;20053;-77
2022/03/23 02:51:07;;;;;;;51.42;25.92;;;;;;;;;;5020518;28;20549;-77
2022/03/23 03:01:58;;;;;;;42.50;23.42;;;;;;;;;;5006057;28;20046;-75
2022/03/23 03:04:25;;;;;;;47.88;24.98;;;;;;;;;;4992189;28;20038;-76
2022/03/23 03:06:51;;;;;;;45.17;23.13;;;;;;;;;;5025783;28;20511;-76
2022/03/23 03:09:19;;;;;;;43.05;23.10;;;;;;;;;;5009228;28;20351;-77
2022/03/23 03:11:47;;;;;;;44.78;23.35;;;;;;;;;;5009484;28;20124;-77
2022/03/23 03:14:13;;;;;;;48.65;24.23;;;;;;;;;;5026937;28;20038;-77
2022/03/23 03:16:39;;;;;;;49.40;24.23;;;;;;;;;;5009591;28;20033;-77
2022/03/23 03:19:09;;;;;;;53.47;25.92;;;;;;;;;;5008968;28;20044;-77
2022/03/23 03:21:35;;;;;;;44.95;23.48;;;;;;;;;;5009633;28;20049;-75
2022/03/23 03:24:01;;;;;;;43.25;22.02;;;;;;;;;;4992685;28;20045;-77
2022/03/23 03:26:30;;;;;;;43.60;22.70;;;;;;;;;;5009197;28;20037;-77
2022/03/23 03:28:57;;;;;;;50.88;25.27;;;;;;;;;;5009558;28;20026;-77
2022/03/23 03:31:23;;;;;;;49.33;23.38;;;;;;;;;;5009114;28;20033;-77
2022/03/23 03:33:49;;;;;;;47.78;23.92;;;;;;;;;;5008613;28;20045;-77
2022/03/23 03:36:15;;;;;;;43.45;22.95;;;;;;;;;;4992327;28;20468;-77
2022/03/23 03:38:42;;;;;;;48.35;23.40;;;;;;;;;;5009802;28;20386;-76
2022/03/23 03:41:08;;;;;;;45.90;22.38;;;;;;;;;;5026585;28;20037;-76
2022/03/23 03:43:35;;;;;;;40.33;20.73;;;;;;;;;;5009249;28;20045;-76
2022/03/23 03:46:02;;;;;;;41.75;21.35;;;;;;;;;;5009145;28;20049;-76
2022/03/23 03:48:28;;;;;;;34.88;19.45;;;;;;;;;;5008711;28;20044;-77
2022/03/23 03:50:54;;;;;;;48.47;24.52;;;;;;;;;;5009078;28;20045;-77
2022/03/23 03:53:21;;;;;;;51.60;25.23;;;;;;;;;;5008787;28;20543;-77
2022/03/23 03:55:47;;;;;;;46.72;24.13;;;;;;;;;;5026555;28;20026;-77
2022/03/23 03:58:14;;;;;;;48.67;25.27;;;;;;;;;;5026519;28;20029;-76
2022/03/23 04:00:40;;;;;;;44.83;22.88;;;;;;;;;;5009084;28;20070;-77
2022/03/23 04:03:06;;;;;;;51.60;26.02;;;;;;;;;;5026134;28;20048;-77
2022/03/23 04:05:33;;;;;;;42.67;22.35;;;;;;;;;;5008646;28;20092;-77
2022/03/23 04:08:00;;;;;;;53.95;25.35;;;;;;;;;;5026662;28;20045;-77
2022/03/23 04:10:26;;;;;;;58.58;26.65;;;;;;;;;;5008650;28;20077;-77
2022/03/23 04:12:52;;;;;;;50.97;26.15;;;;;;;;;;5008941;28;20413;-77
2022/03/23 04:15:24;;;;;;;59.42;29.67;;;;;;;;;;5025889;28;20037;-77
2022/03/23 04:17:50;;;;;;;59.60;29.58;;;;;;;;;;4992274;28;20041;-77
2022/03/23 04:20:16;;;;;;;64.72;31.38;;;;;;;;;;5011387;28;20034;-77
2022/03/23 04:22:42;;;;;;;54.40;25.13;;;;;;;;;;5012267;28;20053;-77
2022/03/23 04:25:09;;;;;;;54.50;27.00;;;;;;;;;;4995205;28;20040;-77
2022/03/23 04:27:44;;;;;;;48.53;25.15;;;;;;;;;;5011887;28;20546;-75
2022/03/23 04:30:12;;;;;;;45.03;22.80;;;;;;;;;;5011491;28;20033;-75
2022/03/23 04:32:38;;;;;;;48.70;25.70;;;;;;;;;;5012270;28;20056;-75
2022/03/23 04:35:05;;;;;;;46.80;24.92;;;;;;;;;;5030138;28;20052;-75
2022/03/23 04:37:31;;;;;;;58.55;29.45;;;;;;;;;;5011882;28;20516;-77
2022/03/23 04:39:57;;;;;;;58.33;28.13;;;;;;;;;;5011977;28;20052;-77
2022/03/23 04:42:24;;;;;;;59.28;28.85;;;;;;;;;;5029325;28;20109;-77
2022/03/23 04:44:50;;;;;;;51.03;25.98;;;;;;;;;;5029330;28;20437;-77
2022/03/23 04:47:16;;;;;;;60.95;29.55;;;;;;;;;;5011401;28;20083;-77
2022/03/23 04:49:42;;;;;;;63.38;29.55;;;;;;;;;;5011520;28;20074;-77
2022/03/23 04:52:08;;;;;;;64.90;30.60;;;;;;;;;;5029131;28;20094;-77
2022/03/23 04:54:34;;;;;;;62.70;29.35;;;;;;;;;;5029231;28;20090;-77
2022/03/23 04:57:00;;;;;;;57.13;27.77;;;;;;;;;;5011362;28;20569;-77
2022/03/23 04:59:27;;;;;;;66.13;30.70;;;;;;;;;;5011493;28;20398;-77
2022/03/23 05:01:53;;;;;;;65.38;31.33;;;;;;;;;;5002566;28;20034;-77
2022/03/23 05:04:19;;;;;;;53.47;26.13;;;;;;;;;;5025783;28;20033;-77
2022/03/23 05:06:46;;;;;;;63.75;29.65;;;;;;;;;;4993003;28;20524;-77
2022/03/23 05:09:12;;;;;;;60.28;29.85;;;;;;;;;;5010647;28;20120;-77
2022/03/23 05:11:38;;;;;;;55.92;27.15;;;;;;;;;;5011536;28;20440;-77
2022/03/23 05:14:04;;;;;;;51.15;25.02;;;;;;;;;;5011116;28;20049;-77
2022/03/23 05:16:30;;;;;;;53.35;26.40;;;;;;;;;;5028584;28;20489;-77
2022/03/23 05:18:56;;;;;;;62.17;30.20;;;;;;;;;;5029006;28;20029;-78
2022/03/23 05:21:22;;;;;;;66.65;31.65;;;;;;;;;;5011101;28;20040;-78
2022/03/23 05:23:48;;;;;;;70.00;32.35;;;;;;;;;;4994830;28;20045;-78
2022/03/23 05:26:14;;;;;;;58.72;30.35;;;;;;;;;;5010882;28;20050;-78
2022/03/23 05:28:41;;;;;;;67.25;33.20;;;;;;;;;;5029056;28;20037;-78
2022/03/23 05:31:07;;;;;;;64.03;31.23;;;;;;;;;;5028208;28;20029;-78
2022/03/23 05:33:33;;;;;;;48.65;24.77;;;;;;;;;;5010491;28;20045;-78
2022/03/23 05:36:00;;;;;;;63.40;30.58;;;;;;;;;;5010566;28;20060;-78
2022/03/23 05:38:26;;;;;;;72.00;33.20;;;;;;;;;;5012999;28;20040;-78
2022/03/23 05:40:52;;;;;;;57.55;28.95;;;;;;;;;;5012629;28;20090;-78
2022/03/23 05:43:19;;;;;;;64.35;30.92;;;;;;;;;;4995919;28;20558;-78
2022/03/23 05:45:45;;;;;;;60.08;30.50;;;;;;;;;;5011952;28;20090;-78
2022/03/23 05:48:11;;;;;;;67.10;33.20;;;;;;;;;;5012295;28;20041;-75
2022/03/23 05:50:38;;;;;;;59.50;29.65;;;;;;;;;;5028360;28;20451;-76
2022/03/23 05:53:04;;;;;;;59.97;26.75;;;;;;;;;;5010684;28;20045;-78
2022/03/23 05:55:30;;;;;;;53.35;25.85;;;;;;;;;;4994368;28;20045;-78
2022/03/23 05:57:56;;;;;;;60.38;29.42;;;;;;;;;;5010497;28;20091;-78
2022/03/23 06:00:23;;;;;;;59.25;29.50;;;;;;;;;;4993702;28;20101;-76
2022/03/23 06:02:49;;;;;;;60.85;29.63;;;;;;;;;;5010069;28;20034;-76
2022/03/23 06:05:15;;;;;;;52.35;27.95;;;;;;;;;;5027272;28;20050;-76
2022/03/23 06:07:41;;;;;;;56.67;29.42;;;;;;;;;;5010443;28;20041;-76
2022/03/23 06:10:07;;;;;;;56.38;29.35;;;;;;;;;;5010275;28;20038;-76
2022/03/23 06:12:33;;;;;;;57.38;28.92;;;;;;;;;;5028343;28;20064;-75
2022/03/23 06:14:59;;;;;;;54.22;29.48;;;;;;;;;;5027769;28;20033;-75
2022/03/23 06:17:26;;;;;;;54.13;29.10;;;;;;;;;;5009793;28;20046;-76
2022/03/23 06:19:52;;;;;;;54.22;27.92;;;;;;;;;;5010304;28;20398;-76
2022/03/23 06:22:18;;;;;;;52.95;28.38;;;;;;;;;;4993795;28;20128;-76
2022/03/23 06:24:44;;;;;;;54.80;29.77;;;;;;;;;;5009743;28;20057;-76
2022/03/23 06:27:10;;;;;;;49.70;28.02;;;;;;;;;;5009711;28;20044;-76
2022/03/23 06:29:37;;;;;;;51.97;29.13;;;;;;;;;;5010232;28;20486;-76
2022/03/23 06:32:03;;;;;;;46.88;25.35;;;;;;;;;;4993726;28;20085;-76
2022/03/23 06:34:29;;;;;;;47.10;26.55;;;;;;;;;;4993160;28;20152;-78
2022/03/23 06:36:56;;;;;;;50.55;26.80;;;;;;;;;;5027316;28;20042;-78
2022/03/23 06:39:22;;;;;;;46.55;26.95;;;;;;;;;;5009655;28;20090;-78
2022/03/23 06:41:48;;;;;;;50.10;27.40;;;;;;;;;;5009358;28;20033;-78
2022/03/23 06:44:15;;;;;;;49.67;27.58;;;;;;;;;;4992723;28;20478;-77
2022/03/23 06:46:42;;;;;;;46.33;27.48;;;;;;;;;;5027334;28;20049;-77
2022/03/23 06:49:08;;;;;;;46.75;26.90;;;;;;;;;;5010071;28;20033;-78
2022/03/23 06:51:34;;;;;;;44.70;27.73;;;;;;;;;;5009387;28;20062;-78
2022/03/23 06:54:00;;;;;;;42.75;25.75;;;;;;;;;;5009712;28;20037;-78
2022/03/23 06:56:26;;;;;;;40.13;25.67;;;;;;;;;;5027040;28;20061;-78
2022/03/23 06:58:52;;;;;;;39.67;25.60;;;;;;;;;;5009642;28;20045;-78
2022/03/23 07:01:18;;;;;;;41.65;26.27;;;;;;;;;;5009601;28;20498;-78
2022/03/23 07:03:44;;;;;;;46.35;27.00;;;;;;;;;;5010040;28;20037;-77
2022/03/23 07:06:10;;;;;;;40.70;25.95;;;;;;;;;;5008869;28;20059;-77
2022/03/23 07:11:21;;;;;;;40.72;25.90;;;;;;;;;;5008342;28;20053;-78
2022/03/23 07:13:47;;;;;;;39.88;26.70;;;;;;;;;;5009436;28;20121;-78
2022/03/23 07:16:13;;;;;;;42.55;26.77;;;;;;;;;;5009157;28;20486;-78
2022/03/23 07:18:40;;;;;;;39.97;26.25;;;;;;;;;;5027585;28;20026;-78
2022/03/23 07:21:06;;;;;;;40.33;26.33;;;;;;;;;;5008876;28;20034;-78
2022/03/23 07:23:34;;;;;;;43.90;28.20;;;;;;;;;;5009462;28;20088;-78
2022/03/23 07:26:00;;;;;;;43.10;28.55;;;;;;;;;;4993842;28;20439;-78
2022/03/23 07:28:26;;;;;;;43.58;28.08;;;;;;;;;;5009505;28;20045;-78
2022/03/23 07:30:52;;;;;;;42.25;27.88;;;;;;;;;;5009794;28;20041;-78
2022/03/23 07:33:19;;;;;;;40.35;27.10;;;;;;;;;;5009432;28;20033;-78
2022/03/23 07:35:45;;;;;;;44.35;27.75;;;;;;;;;;5027059;28;20041;-78
2022/03/23 07:38:11;;;;;;;39.42;27.92;;;;;;;;;;4976095;28;20042;-76
2022/03/23 07:40:37;;;;;;;43.90;28.30;;;;;;;;;;5027005;28;20046;-76
2022/03/23 07:43:04;;;;;;;38.60;27.52;;;;;;;;;;5008907;28;20124;-76
2022/03/23 07:45:30;;;;;;;38.85;26.52;;;;;;;;;;5008950;28;20141;-76
2022/03/23 07:47:57;;;;;;;37.80;27.10;;;;;;;;;;5009342;28;20527;-76
2022/03/23 07:50:23;;;;;;;35.30;26.55;;;;;;;;;;4992411;28;20041;-78
2022/03/23 07:52:49;;;;;;;38.50;26.63;;;;;;;;;;5009033;28;20120;-78
2022/03/23 07:55:16;;;;;;;37.03;25.88;;;;;;;;;;5011790;28;20043;-78
2022/03/23 07:57:42;;;;;;;34.78;24.23;;;;;;;;;;5012572;28;20482;-78
2022/03/23 08:00:08;;;;;;;35.15;24.80;;;;;;;;;;5022931;28;20038;-78
2022/03/23 08:02:35;;;;;;;34.83;24.65;;;;;;;;;;5012525;28;20482;-78
2022/03/23 08:05:01;;;;;;;35.10;24.45;;;;;;;;;;5027655;28;20502;-77
2022/03/23 08:07:27;;;;;;;32.65;24.48;;;;;;;;;;5009502;28;20045;-77
2022/03/23 08:09:53;;;;;;;31.33;23.58;;;;;;;;;;5029932;28;20037;-77
2022/03/23 08:12:19;;;;;;;33.42;24.27;;;;;;;;;;5011819;28;20137;-77
2022/03/23 08:14:46;;;;;;;32.53;24.00;;;;;;;;;;5012269;28;20757;-78
2022/03/23 08:17:12;;;;;;;36.80;24.15;;;;;;;;;;5029352;28;20482;-77
2022/03/23 08:19:39;;;;;;;35.38;24.33;;;;;;;;;;5012037;28;20041;-77
2022/03/23 08:22:05;;;;;;;37.35;25.40;;;;;;;;;;5011825;28;20094;-78
2022/03/23 08:24:31;;;;;;;35.95;24.52;;;;;;;;;;5029780;28;20045;-77
2022/03/23 08:26:59;;;;;;;35.33;24.08;;;;;;;;;;5012040;28;20120;-77
2022/03/23 08:29:25;;;;;;;36.30;23.17;;;;;;;;;;4995698;28;20531;-78
2022/03/23 08:31:52;;;;;;;38.00;24.30;;;;;;;;;;4995773;28;20045;-77
2022/03/23 08:34:18;;;;;;;36.17;23.52;;;;;;;;;;4995673;28;20124;-75
2022/03/23 08:36:44;;;;;;;33.13;24.08;;;;;;;;;;5029539;28;20181;-76
2022/03/23 08:39:11;;;;;;;33.03;22.45;;;;;;;;;;5029222;28;20112;-76
2022/03/23 08:41:37;;;;;;;28.77;21.88;;;;;;;;;;5011253;28;20042;-76
2022/03/23 08:44:03;;;;;;;29.25;22.40;;;;;;;;;;4994513;28;20037;-77
2022/03/23 08:46:30;;;;;;;29.35;21.95;;;;;;;;;;4994545;28;20494;-78
2022/03/23 08:48:56;;;;;;;30.27;21.52;;;;;;;;;;5029133;28;20041;-78
2022/03/23 08:51:22;;;;;;;30.30;22.35;;;;;;;;;;5011046;28;20042;-76
2022/03/23 08:53:48;;;;;;;28.85;22.10;;;;;;;;;;5011465;28;20138;-76
2022/03/23 08:56:14;;;;;;;31.92;22.23;;;;;;;;;;5011021;28;20543;-77
2022/03/23 08:58:47;;;;;;;30.35;22.08;;;;;;;;;;5029027;28;20037;-76
2022/03/23 09:01:14;;;;;;;28.98;21.05;;;;;;;;;;5011190;28;20084;-76
2022/03/23 09:03:40;;;;;;;28.05;21.20;;;;;;;;;;5011433;28;20045;-76
2022/03/23 09:06:07;;;;;;;28.00;21.42;;;;;;;;;;5010441;28;20049;-76
2022/03/23 09:08:33;;;;;;;30.08;21.75;;;;;;;;;;4994900;28;20045;-75
2022/03/23 09:10:59;;;;;;;28.90;20.63;;;;;;;;;;5011630;28;20444;-76
2022/03/23 09:13:26;;;;;;;29.90;21.90;;;;;;;;;;5010760;28;20445;-76
2022/03/23 09:15:52;;;;;;;26.40;20.55;;;;;;;;;;5011694;28;20084;-76
2022/03/23 09:18:18;;;;;;;27.85;21.15;;;;;;;;;;5011165;28;20045;-76
2022/03/23 09:20:45;;;;;;;27.13;21.27;;;;;;;;;;5028713;28;20512;-75
2022/03/23 09:23:12;;;;;;;30.17;21.33;;;;;;;;;;5010856;28;20482;-75
2022/03/23 09:25:40;;;;;;;29.02;22.05;;;;;;;;;;5028405;28;20098;-75
2022/03/23 09:28:06;;;;;;;25.45;20.17;;;;;;;;;;5010506;28;20037;-75
2022/03/23 09:30:32;;;;;;;27.02;20.88;;;;;;;;;;5028528;28;20038;-75
2022/03/23 09:33:00;;;;;;;25.08;20.05;;;;;;;;;;5010914;28;20044;-75
2022/03/23 09:35:27;;;;;;;27.48;21.42;;;;;;;;;;5010853;28;20037;-76
2022/03/23 09:37:53;;;;;;;27.58;19.75;;;;;;;;;;5010947;28;20046;-74
2022/03/23 09:40:31;;;;;;;25.38;19.75;;;;;;;;;;5010495;28;20029;-75
2022/03/23 09:43:02;;;;;;;26.45;19.95;;;;;;;;;;5010941;28;20367;-75
2022/03/23 09:47:54;;;;;;;25.95;20.35;;;;;;;;;;5010844;28;20056;-74
2022/03/23 09:50:20;;;;;;;23.98;19.17;;;;;;;;;;5010455;28;20076;-74
2022/03/23 09:52:47;;;;;;;31.38;20.17;;;;;;;;;;4994755;28;20516;-75
2022/03/23 09:55:13;;;;;;;29.63;19.95;;;;;;;;;;5010655;28;20529;-74
2022/03/23 09:57:39;;;;;;;24.58;19.70;;;;;;;;;;5028105;28;20079;-76
2022/03/23 10:00:09;;;;;;;25.13;18.95;;;;;;;;;;5010326;28;20037;-76
2022/03/23 10:02:54;;;;;;;23.30;17.92;;;;;;;;;;5010269;28;20509;-76
2022/03/23 10:05:39;;;;;;;24.13;19.00;;;;;;;;;;4988542;28;20054;-75
2022/03/23 10:08:21;;;;;;;24.77;18.88;;;;;;;;;;5009800;28;20099;-76
2022/03/23 10:10:56;;;;;;;25.52;19.75;;;;;;;;;;5009793;28;20045;-77
2022/03/23 10:13:25;;;;;;;26.70;19.05;;;;;;;;;;5007949;28;20124;-75
2022/03/23 10:16:06;;;;;;;29.05;18.73;;;;;;;;;;5028197;28;20033;-75
2022/03/23 10:18:48;;;;;;;25.88;18.15;;;;;;;;;;5008422;28;20454;-75
2022/03/23 10:21:14;;;;;;;24.05;18.90;;;;;;;;;;4993759;28;20076;-74
2022/03/23 10:23:50;;;;;;;24.20;18.45;;;;;;;;;;4994025;28;20034;-74
2022/03/23 10:26:16;;;;;;;25.48;19.48;;;;;;;;;;5027338;28;20520;-75
2022/03/23 10:28:42;;;;;;;28.40;19.38;;;;;;;;;;5027663;28;20037;-76
2022/03/23 10:31:18;;;;;;;28.42;18.88;;;;;;;;;;5009550;28;20110;-77
2022/03/23 10:33:45;;;;;;;27.92;19.95;;;;;;;;;;5009499;28;20041;-75
2022/03/23 10:36:11;;;;;;;26.70;17.67;;;;;;;;;;5027433;28;20083;-76
2022/03/23 10:38:39;;;;;;;30.38;20.40;;;;;;;;;;5009806;28;20490;-75
2022/03/23 10:41:09;;;;;;;25.00;18.58;;;;;;;;;;5009449;28;20029;-75
2022/03/23 10:43:36;;;;;;;23.02;18.23;;;;;;;;;;5026917;28;20041;-77
2022/03/23 10:46:11;;;;;;;23.65;18.50;;;;;;;;;;5009637;28;20041;-75
2022/03/23 10:48:48;;;;;;;26.70;17.77;;;;;;;;;;4993482;28;20393;-75
2022/03/23 10:51:14;;;;;;;22.42;16.38;;;;;;;;;;5018198;28;20049;-75
2022/03/23 10:53:43;;;;;;;25.48;18.95;;;;;;;;;;5009610;28;20037;-77
2022/03/23 10:56:09;;;;;;;25.75;18.73;;;;;;;;;;5009431;28;20094;-74
2022/03/23 10:58:35;;;;;;;28.13;18.80;;;;;;;;;;5009108;28;20397;-77
2022/03/23 11:01:03;;;;;;;28.90;17.98;;;;;;;;;;5027139;28;20118;-75
2022/03/23 11:03:36;;;;;;;23.58;18.17;;;;;;;;;;5009321;28;20046;-75
2022/03/23 11:06:02;;;;;;;21.98;16.50;;;;;;;;;;5009484;28;20083;-74
2022/03/23 11:08:28;;;;;;;24.42;15.15;;;;;;;;;;5026886;28;20060;-75
2022/03/23 11:16:28;;;;;;;23.20;11.80;;;;;;;;;;5008647;28;20058;-74
2022/03/23 11:18:57;;;;;;;20.73;11.75;;;;;;;;;;5026766;28;20038;-74
2022/03/23 11:21:23;;;;;;;23.70;11.93;;;;;;;;;;5009092;28;20037;-74
2022/03/23 11:23:49;;;;;;;24.38;12.63;;;;;;;;;;5027156;28;20041;-74
2022/03/23 11:26:15;;;;;;;17.05;8.95;;;;;;;;;;4976707;28;20090;-74
2022/03/23 11:28:43;;;;;;;21.45;8.43;;;;;;;;;;5008616;28;20537;-75
2022/03/23 11:31:11;;;;;;;18.25;9.10;;;;;;;;;;5009419;28;20053;-74
2022/03/23 11:33:38;;;;;;;20.50;10.55;;;;;;;;;;5026343;28;20040;-74
2022/03/23 11:36:08;;;;;;;23.00;11.35;;;;;;;;;;5008606;28;20138;-76
2022/03/23 11:38:34;;;;;;;19.95;10.73;;;;;;;;;;5008544;28;20049;-76
2022/03/23 11:41:00;;;;;;;20.10;10.68;;;;;;;;;;4992746;28;20049;-75
2022/03/23 11:43:33;;;;;;;17.73;8.90;;;;;;;;;;5008439;28;20042;-76
2022/03/23 11:46:00;;;;;;;25.55;8.32;;;;;;;;;;5006941;28;20395;-74
2022/03/23 11:48:46;;;;;;;21.35;8.02;;;;;;;;;;5008734;28;20112;-75
2022/03/23 11:51:33;;;;;;;19.30;8.13;;;;;;;;;;5008935;28;20124;-75
2022/03/23 11:54:07;;;;;;;22.75;9.18;;;;;;;;;;5008805;28;20037;-74
2022/03/23 11:56:45;;;;;;;24.20;10.43;;;;;;;;;;5026695;28;20452;-74
2022/03/23 11:59:18;;;;;;;22.38;10.55;;;;;;;;;;5026747;28;20478;-74
2022/03/23 12:01:44;;;;;;;21.90;10.52;;;;;;;;;;5008724;28;20046;-74
2022/03/23 12:04:13;;;;;;;23.95;11.00;;;;;;;;;;5008692;28;20069;-74
2022/03/23 12:06:41;;;;;;;24.30;10.20;;;;;;;;;;5018652;28;20119;-74
2022/03/23 12:09:08;;;;;;;20.25;9.57;;;;;;;;;;5025986;28;20098;-74
2022/03/23 12:11:46;;;;;;;21.08;9.43;;;;;;;;;;5008048;28;20049;-74
2022/03/23 12:14:20;;;;;;;20.95;9.13;;;;;;;;;;5008338;28;20049;-74
2022/03/23 12:16:52;;;;;;;17.00;8.52;;;;;;;;;;5026243;28;20042;-74
2022/03/23 12:19:19;;;;;;;18.88;7.57;;;;;;;;;;5008500;28;20401;-74
2022/03/23 12:22:07;;;;;;;24.73;7.43;;;;;;;;;;5008770;28;20428;-74
2022/03/23 12:24:42;;;;;;;20.88;7.75;;;;;;;;;;5026353;28;20132;-74
2022/03/23 12:27:28;;;;;;;16.73;7.50;;;;;;;;;;5026193;28;20049;-74
2022/03/23 12:29:56;;;;;;;19.92;8.10;;;;;;;;;;5024191;28;20049;-74
2022/03/23 12:32:22;;;;;;;18.73;7.93;;;;;;;;;;5007673;28;20041;-74
2022/03/23 12:34:52;;;;;;;18.90;7.55;;;;;;;;;;5008223;28;20494;-74
2022/03/23 12:37:19;;;;;;;18.60;7.55;;;;;;;;;;5007583;28;20102;-74
2022/03/23 12:39:53;;;;;;;18.15;7.20;;;;;;;;;;5008091;28;20513;-75
2022/03/23 12:42:31;;;;;;;19.90;8.18;;;;;;;;;;5011213;28;20486;-76
2022/03/23 12:45:02;;;;;;;19.98;7.72;;;;;;;;;;5029073;28;20052;-75
2022/03/23 12:47:30;;;;;;;17.45;6.15;;;;;;;;;;5009579;28;20068;-74
2022/03/23 12:58:14;;;;;;;17.60;6.30;;;;;;;;;;5011104;28;19921;-74
2022/03/23 13:00:44;;;;;;;18.35;7.07;;;;;;;;;;5011011;28;20383;-74
2022/03/23 13:03:10;;;;;;;18.48;8.20;;;;;;;;;;5011182;28;20041;-75
2022/03/23 13:05:38;;;;;;;20.15;8.05;;;;;;;;;;5008781;28;20057;-74
2022/03/23 13:08:23;;;;;;;19.67;7.97;;;;;;;;;;5010739;28;20049;-75
2022/03/23 13:10:58;;;;;;;19.90;8.65;;;;;;;;;;5010830;28;20394;-75
2022/03/23 13:13:25;;;;;;;21.00;7.13;;;;;;;;;;5010875;28;20114;-74
2022/03/23 13:15:51;;;;;;;20.45;7.70;;;;;;;;;;5028889;28;20288;-76
2022/03/23 13:18:23;;;;;;;18.67;8.52;;;;;;;;;;4994293;28;20490;-76
2022/03/23 13:20:50;;;;;;;21.90;8.45;;;;;;;;;;5011000;28;20045;-76
2022/03/23 13:23:19;;;;;;;19.83;8.88;;;;;;;;;;5010374;28;20037;-77
2022/03/23 13:26:05;;;;;;;27.33;8.35;;;;;;;;;;5019346;28;20074;-77
2022/03/23 13:28:35;;;;;;;18.35;7.65;;;;;;;;;;5010541;28;20041;-75
2022/03/23 13:31:02;;;;;;;15.45;6.95;;;;;;;;;;5028569;28;20038;-76
2022/03/23 13:33:45;;;;;;;18.55;6.78;;;;;;;;;;4994137;28;20075;-76
2022/03/23 13:36:14;;;;;;;15.73;6.50;;;;;;;;;;5010575;28;20037;-75
2022/03/23 13:38:42;;;;;;;14.20;5.60;;;;;;;;;;5028348;28;20053;-74
2022/03/23 13:43:54;;;;;;;16.27;7.60;;;;;;;;;;5010729;28;20132;-74
2022/03/23 13:46:24;;;;;;;18.08;7.38;;;;;;;;;;5010286;28;20102;-74
2022/03/23 13:49:01;;;;;;;16.98;6.72;;;;;;;;;;5010366;28;20044;-74
2022/03/23 13:51:37;;;;;;;23.67;8.27;;;;;;;;;;5020314;28;20049;-74
2022/03/23 13:54:05;;;;;;;21.27;9.10;;;;;;;;;;5008504;28;20383;-75
2022/03/23 13:56:35;;;;;;;14.13;7.07;;;;;;;;;;5028298;28;20080;-74
2022/03/23 13:59:02;;;;;;;21.77;7.50;;;;;;;;;;5010404;28;20033;-74
2022/03/23 14:01:29;;;;;;;20.83;7.72;;;;;;;;;;5010354;28;20065;-74
2022/03/23 14:03:57;;;;;;;17.15;7.50;;;;;;;;;;4993916;28;20038;-74
2022/03/23 14:06:24;;;;;;;19.95;7.90;;;;;;;;;;4993706;28;20242;-74
2022/03/23 14:08:54;;;;;;;22.42;7.97;;;;;;;;;;4994029;28;20122;-74
2022/03/23 14:11:47;;;;;;;20.33;8.20;;;;;;;;;;4993829;28;20047;-74
2022/03/23 14:14:11;;;;;;;21.13;7.22;;;;;;;;;;5010324;28;20502;-74
2022/03/23 14:16:38;;;;;;;22.70;7.95;;;;;;;;;;4993643;28;20077;-74
2022/03/23 14:19:05;;;;;;;17.33;6.75;;;;;;;;;;5010107;28;20048;-74
2022/03/23 14:21:31;;;;;;;18.80;7.05;;;;;;;;;;5009729;28;20080;-74
2022/03/23 14:23:58;;;;;;;19.50;6.97;;;;;;;;;;5010117;28;20041;-74
2022/03/23 14:26:32;;;;;;;18.27;6.07;;;;;;;;;;5061698;28;20042;-75
2022/03/23 14:28:59;;;;;;;19.75;6.13;;;;;;;;;;5010116;28;20390;-74
2022/03/23 14:31:25;;;;;;;15.65;6.55;;;;;;;;;;5009959;28;20081;-75
2022/03/23 14:34:01;;;;;;;16.70;6.03;;;;;;;;;;5010090;28;20498;-74
2022/03/23 14:36:28;;;;;;;19.42;7.35;;;;;;;;;;5009488;28;20049;-75
2022/03/23 14:38:57;;;;;;;17.42;7.10;;;;;;;;;;4993571;28;20048;-74
2022/03/23 14:41:25;;;;;;;17.67;6.90;;;;;;;;;;5009461;28;20037;-75
2022/03/23 14:43:51;;;;;;;17.15;6.63;;;;;;;;;;5010043;28;20069;-75
2022/03/23 14:46:23;;;;;;;23.33;6.70;;;;;;;;;;5009601;28;20033;-75
2022/03/23 14:49:09;;;;;;;18.58;7.10;;;;;;;;;;5009619;28;20064;-74
2022/03/23 14:51:37;;;;;;;18.00;6.38;;;;;;;;;;5009162;28;20128;-74